createdAt,value
2022-07-27T00:01:15.779Z,22.64
2022-07-27T00:03:46.018Z,22.58
2022-07-27T00:06:14.194Z,22.59
2022-07-27T00:08:42.192Z,22.54
2022-07-27T00:11:10.680Z,22.54
2022-07-27T00:13:38.788Z,22.46
2022-07-27T00:16:06.987Z,22.44
2022-07-27T00:18:36.570Z,22.40
2022-07-27T00:21:04.626Z,22.38
2022-07-27T00:23:32.735Z,22.36
2022-07-27T00:26:00.938Z,22.28
2022-07-27T00:28:28.925Z,22.25
2022-07-27T00:30:56.865Z,22.24
2022-07-27T00:33:25.223Z,22.19
2022-07-27T00:35:54.518Z,22.18
2022-07-27T00:38:22.436Z,22.18
2022-07-27T00:40:50.559Z,22.19
2022-07-27T00:43:18.455Z,22.14
2022-07-27T00:45:46.447Z,22.12
2022-07-27T00:48:14.567Z,22.03
2022-07-27T00:50:44.331Z,22.00
2022-07-27T00:53:15.222Z,21.99
2022-07-27T00:55:43.695Z,21.91
2022-07-27T00:58:11.636Z,21.87
2022-07-27T01:00:39.802Z,21.90
2022-07-27T01:03:09.134Z,21.89
2022-07-27T01:05:42.423Z,21.84
2022-07-27T01:08:14.940Z,21.84
2022-07-27T01:10:44.420Z,21.75
2022-07-27T01:13:13.546Z,21.73
2022-07-27T01:15:43.555Z,21.75
2022-07-27T01:18:12.824Z,21.71
2022-07-27T01:20:42.329Z,21.73
2022-07-27T01:23:11.590Z,21.64
2022-07-27T01:25:42.269Z,21.58
2022-07-27T01:28:10.843Z,21.57
2022-07-27T01:30:40.674Z,21.53
2022-07-27T01:33:09.880Z,21.42
2022-07-27T01:35:39.470Z,21.39
2022-07-27T01:38:09.386Z,21.32
2022-07-27T01:40:39.681Z,21.23
2022-07-27T01:43:08.016Z,21.22
2022-07-27T01:45:36.094Z,21.21
2022-07-27T01:48:04.402Z,21.16
2022-07-27T01:50:32.856Z,21.12
2022-07-27T01:53:00.734Z,21.07
2022-07-27T01:55:35.798Z,21.03
2022-07-27T01:58:09.663Z,21.03
2022-07-27T02:00:38.163Z,21.05
2022-07-27T02:03:08.383Z,21.05
2022-07-27T02:05:37.723Z,21.01
2022-07-27T02:08:06.891Z,21.00
2022-07-27T02:10:35.996Z,21.01
2022-07-27T02:13:22.435Z,21.05
2022-07-27T02:15:54.683Z,21.01
2022-07-27T02:18:32.780Z,21.01
2022-07-27T02:21:05.771Z,21.00
2022-07-27T02:23:34.371Z,21.00
2022-07-27T02:26:02.624Z,20.99
2022-07-27T02:28:30.830Z,21.00
2022-07-27T02:31:00.097Z,20.93
2022-07-27T02:33:28.377Z,20.78
2022-07-27T02:35:56.761Z,20.85
2022-07-27T02:38:25.660Z,20.88
2022-07-27T02:40:53.750Z,20.92
2022-07-27T02:43:21.913Z,20.92
2022-07-27T02:45:51.053Z,20.93
2022-07-27T02:48:20.320Z,20.96
2022-07-27T02:50:48.472Z,21.01
2022-07-27T02:53:16.373Z,20.99
2022-07-27T02:55:44.236Z,20.95
2022-07-27T02:58:12.328Z,20.99
2022-07-27T03:00:40.194Z,20.99
2022-07-27T03:03:08.082Z,20.99
2022-07-27T03:05:37.546Z,21.01
2022-07-27T03:08:06.005Z,21.03
2022-07-27T03:10:34.012Z,21.02
2022-07-27T03:13:02.253Z,21.01
2022-07-27T03:15:30.533Z,21.01
2022-07-27T03:17:58.467Z,21.00
2022-07-27T03:20:43.239Z,20.95
2022-07-27T03:23:11.507Z,20.99
2022-07-27T03:25:40.340Z,20.95
2022-07-27T03:28:08.555Z,20.95
2022-07-27T03:30:37.649Z,20.95
2022-07-27T03:33:09.855Z,20.94
2022-07-27T03:35:43.431Z,20.93
2022-07-27T03:38:13.955Z,20.91
2022-07-27T03:40:42.079Z,20.90
2022-07-27T03:43:10.055Z,20.90
2022-07-27T03:45:38.954Z,20.92
2022-07-27T03:48:07.327Z,20.92
2022-07-27T03:50:35.335Z,20.91
2022-07-27T03:53:04.937Z,20.83
2022-07-27T03:55:32.899Z,20.77
2022-07-27T03:58:00.773Z,20.81
2022-07-27T04:00:29.157Z,20.85
2022-07-27T04:02:57.417Z,20.82
2022-07-27T04:05:25.411Z,20.78
2022-07-27T04:07:57.989Z,20.72
2022-07-27T04:10:31.482Z,20.73
2022-07-27T04:13:00.279Z,20.72
2022-07-27T04:15:29.411Z,20.71
2022-07-27T04:17:57.874Z,20.60
2022-07-27T04:20:26.821Z,20.68
2022-07-27T04:22:54.922Z,20.76
2022-07-27T04:25:23.036Z,20.71
2022-07-27T04:27:54.530Z,20.61
2022-07-27T04:30:23.353Z,20.69
2022-07-27T04:32:51.733Z,20.70
2022-07-27T04:35:25.693Z,20.71
2022-07-27T04:37:58.706Z,20.71
2022-07-27T04:40:32.650Z,20.72
2022-07-27T04:43:03.350Z,20.78
2022-07-27T04:45:31.518Z,20.73
2022-07-27T04:48:00.066Z,20.77
2022-07-27T04:50:28.242Z,20.89
2022-07-27T04:52:59.251Z,21.01
2022-07-27T04:55:27.159Z,21.06
2022-07-27T04:57:55.347Z,21.04
2022-07-27T05:00:24.857Z,21.06
2022-07-27T05:02:52.855Z,21.05
2022-07-27T05:05:21.511Z,21.01
2022-07-27T05:07:49.402Z,21.00
2022-07-27T05:10:20.462Z,21.08
2022-07-27T05:12:49.973Z,21.08
2022-07-27T05:15:18.247Z,21.06
2022-07-27T05:17:47.950Z,21.09
2022-07-27T05:20:16.837Z,21.15
2022-07-27T05:22:44.935Z,21.24
2022-07-27T05:25:13.118Z,21.20
2022-07-27T05:27:53.838Z,21.27
2022-07-27T05:30:25.381Z,21.26
2022-07-27T05:32:57.445Z,21.34
2022-07-27T05:35:25.349Z,21.46
2022-07-27T05:37:53.502Z,21.59
2022-07-27T05:40:21.556Z,21.57
2022-07-27T05:42:49.691Z,21.71
2022-07-27T05:45:17.870Z,21.83
2022-07-27T05:47:45.734Z,21.79
2022-07-27T05:50:15.998Z,21.80
2022-07-27T05:52:45.288Z,21.84
2022-07-27T05:55:14.059Z,21.92
2022-07-27T05:57:44.763Z,21.84
2022-07-27T06:00:13.608Z,21.93
2022-07-27T06:02:42.187Z,22.00
2022-07-27T06:05:15.560Z,22.14
2022-07-27T06:08:00.102Z,22.09
2022-07-27T06:10:29.262Z,22.22
2022-07-27T06:12:57.719Z,22.22
2022-07-27T06:15:26.137Z,22.26
2022-07-27T06:17:54.376Z,22.23
2022-07-27T06:20:24.409Z,22.18
2022-07-27T06:22:55.953Z,22.17
2022-07-27T06:25:33.962Z,22.48
2022-07-27T06:28:04.906Z,22.67
2022-07-27T06:30:34.023Z,22.65
2022-07-27T06:33:04.256Z,22.66
2022-07-27T06:35:33.876Z,22.73
2022-07-27T06:38:03.973Z,22.68
2022-07-27T06:40:32.204Z,22.84
2022-07-27T06:43:00.288Z,22.92
2022-07-27T06:45:28.561Z,22.96
2022-07-27T06:47:57.511Z,22.96
2022-07-27T06:50:25.883Z,23.13
2022-07-27T06:52:53.891Z,23.16
2022-07-27T06:55:23.438Z,23.23
2022-07-27T06:57:51.366Z,23.22
2022-07-27T07:00:19.260Z,23.23
2022-07-27T07:02:55.208Z,23.30
2022-07-27T07:05:24.036Z,23.55
2022-07-27T07:07:52.893Z,23.62
2022-07-27T07:10:23.695Z,23.77
2022-07-27T07:12:56.398Z,23.98
2022-07-27T07:15:26.479Z,24.21
2022-07-27T07:17:55.185Z,24.22
2022-07-27T07:20:23.775Z,24.42
2022-07-27T07:22:52.083Z,24.49
2022-07-27T07:25:20.456Z,24.49
2022-07-27T07:27:48.423Z,24.52
2022-07-27T07:30:17.951Z,24.54
2022-07-27T07:32:46.184Z,24.52
2022-07-27T07:35:15.025Z,24.41
2022-07-27T07:37:43.073Z,24.52
2022-07-27T07:40:42.133Z,24.52
2022-07-27T07:43:01.544Z,24.23
2022-07-27T07:45:34.737Z,24.31
2022-07-27T07:48:02.707Z,24.33
2022-07-27T07:50:31.039Z,24.46
2022-07-27T07:52:59.482Z,24.62
2022-07-27T07:55:29.200Z,24.70
2022-07-27T07:57:59.936Z,24.78
2022-07-27T08:00:28.019Z,24.85
2022-07-27T08:02:58.802Z,24.72
2022-07-27T08:05:28.169Z,24.68
2022-07-27T08:07:56.351Z,24.73
2022-07-27T08:10:25.148Z,24.77
2022-07-27T08:12:56.241Z,24.98
2022-07-27T08:15:35.061Z,24.84
2022-07-27T08:18:05.914Z,25.06
2022-07-27T08:20:35.104Z,25.21
2022-07-27T08:23:03.542Z,25.39
2022-07-27T08:25:31.985Z,25.61
2022-07-27T08:28:00.336Z,25.91
2022-07-27T08:30:32.395Z,26.17
2022-07-27T08:33:03.216Z,26.36
2022-07-27T08:35:34.572Z,26.18
2022-07-27T08:38:06.043Z,26.49
2022-07-27T08:40:44.049Z,26.61
2022-07-27T08:43:21.876Z,26.88
2022-07-27T08:45:57.141Z,27.35
2022-07-27T08:48:26.016Z,27.38
2022-07-27T08:50:56.227Z,27.47
2022-07-27T08:53:24.868Z,27.42
2022-07-27T08:55:53.250Z,27.31
2022-07-27T08:58:21.254Z,27.28
2022-07-27T09:00:50.885Z,27.43
2022-07-27T09:03:21.725Z,27.12
2022-07-27T09:05:51.721Z,26.71
2022-07-27T09:08:24.306Z,27.11
2022-07-27T09:10:54.560Z,26.71
2022-07-27T09:13:27.175Z,26.99
2022-07-27T09:16:17.653Z,27.10
2022-07-27T09:18:44.856Z,27.55
2022-07-27T09:21:18.031Z,27.55
2022-07-27T09:23:51.024Z,27.74
2022-07-27T09:26:31.664Z,27.33
2022-07-27T09:29:03.526Z,27.39
2022-07-27T09:31:32.335Z,27.38
2022-07-27T09:34:02.704Z,27.50
2022-07-27T09:36:31.989Z,28.14
2022-07-27T09:39:13.043Z,28.60
2022-07-27T09:41:43.461Z,28.50
2022-07-27T09:44:31.251Z,28.22
2022-07-27T09:47:01.054Z,28.00
2022-07-27T09:49:32.273Z,27.75
2022-07-27T09:52:02.179Z,27.78
2022-07-27T09:54:44.531Z,27.26
2022-07-27T09:57:12.506Z,27.11
2022-07-27T09:59:41.033Z,27.40
2022-07-27T10:02:09.180Z,27.49
2022-07-27T10:04:37.491Z,27.59
2022-07-27T10:07:10.604Z,27.67
2022-07-27T10:09:40.917Z,27.55
2022-07-27T10:12:10.937Z,27.82
2022-07-27T10:14:38.879Z,27.70
2022-07-27T10:17:10.662Z,27.93
2022-07-27T10:19:46.622Z,28.24
2022-07-27T10:22:15.121Z,28.26
2022-07-27T10:24:43.424Z,28.40
2022-07-27T10:27:27.964Z,28.46
2022-07-27T10:29:57.346Z,27.93
2022-07-27T10:32:25.959Z,28.03
2022-07-27T10:34:54.450Z,28.45
2022-07-27T10:37:27.540Z,28.60
2022-07-27T10:40:11.727Z,28.63
2022-07-27T10:42:41.910Z,28.74
2022-07-27T10:45:11.574Z,28.40
2022-07-27T10:47:44.549Z,28.38
2022-07-27T10:50:33.565Z,28.70
2022-07-27T10:53:05.324Z,28.97
2022-07-27T10:55:44.519Z,29.15
2022-07-27T10:58:58.679Z,29.16
2022-07-27T11:01:31.110Z,28.78
2022-07-27T11:04:09.598Z,28.45
2022-07-27T11:07:14.936Z,28.68
2022-07-27T11:12:29.694Z,28.49
2022-07-27T11:14:59.385Z,28.88
2022-07-27T11:17:54.201Z,28.50
2022-07-27T11:20:23.003Z,28.70
2022-07-27T11:23:48.380Z,29.06
2022-07-27T11:25:39.131Z,29.23
2022-07-27T11:28:08.180Z,29.38
2022-07-27T11:30:36.135Z,29.54
2022-07-27T11:33:07.192Z,29.43
2022-07-27T11:35:35.230Z,29.58
2022-07-27T11:38:05.436Z,29.34
2022-07-27T11:43:34.583Z,29.87
2022-07-27T11:46:18.064Z,30.37
2022-07-27T11:49:17.598Z,29.86
2022-07-27T11:51:47.869Z,29.49
2022-07-27T11:54:21.008Z,29.55
2022-07-27T11:56:51.888Z,29.68
2022-07-27T11:59:21.123Z,29.45
2022-07-27T12:01:52.150Z,29.38
2022-07-27T12:04:27.069Z,29.48
2022-07-27T12:06:58.480Z,29.96
2022-07-27T12:09:27.304Z,30.14
2022-07-27T12:12:03.309Z,30.13
2022-07-27T12:14:34.556Z,29.82
2022-07-27T12:17:20.302Z,29.26
2022-07-27T12:19:56.045Z,29.32
2022-07-27T12:22:26.717Z,29.18
2022-07-27T12:24:56.083Z,29.04
2022-07-27T12:27:26.230Z,28.95
2022-07-27T12:30:00.273Z,28.66
2022-07-27T12:32:29.287Z,28.01
2022-07-27T12:34:59.443Z,28.36
2022-07-27T12:37:32.144Z,28.97
2022-07-27T12:40:01.097Z,29.47
2022-07-27T12:42:37.050Z,29.00
2022-07-27T12:45:16.667Z,28.83
2022-07-27T12:47:45.151Z,28.74
2022-07-27T12:50:17.280Z,29.33
2022-07-27T12:52:49.235Z,29.46
2022-07-27T12:55:18.950Z,29.43
2022-07-27T12:57:56.704Z,29.42
2022-07-27T13:00:33.636Z,28.92
2022-07-27T13:03:03.454Z,29.16
2022-07-27T13:05:33.851Z,28.92
2022-07-27T13:08:03.349Z,28.74
2022-07-27T13:10:32.127Z,28.90
2022-07-27T13:13:00.606Z,28.77
2022-07-27T13:15:28.542Z,28.62
2022-07-27T13:17:56.822Z,28.60
2022-07-27T13:20:26.391Z,28.52
2022-07-27T13:22:55.911Z,28.88
2022-07-27T13:25:24.133Z,29.31
2022-07-27T13:27:52.255Z,29.63
2022-07-27T13:30:20.419Z,29.41
2022-07-27T13:32:48.964Z,28.72
2022-07-27T13:35:17.534Z,28.84
2022-07-27T13:37:46.011Z,29.11
2022-07-27T13:40:16.690Z,29.31
2022-07-27T13:42:44.658Z,29.68
2022-07-27T13:45:13.036Z,29.98
2022-07-27T13:47:42.375Z,29.74
2022-07-27T13:50:18.430Z,30.22
2022-07-27T13:52:48.805Z,29.99
2022-07-27T13:55:18.947Z,29.83
2022-07-27T13:57:47.668Z,30.10
2022-07-27T14:00:16.858Z,30.12
2022-07-27T14:02:46.025Z,30.38
2022-07-27T14:05:15.211Z,30.18
2022-07-27T14:07:44.785Z,30.54
2022-07-27T14:10:31.302Z,30.77
2022-07-27T14:13:08.081Z,30.71
2022-07-27T14:15:53.519Z,30.92
2022-07-27T14:18:25.444Z,31.54
2022-07-27T14:20:54.239Z,31.36
2022-07-27T14:23:22.651Z,31.39
2022-07-27T14:25:50.952Z,31.40
2022-07-27T14:28:20.544Z,31.49
2022-07-27T14:30:49.892Z,31.60
2022-07-27T14:33:18.169Z,31.91
2022-07-27T14:35:47.024Z,32.15
2022-07-27T14:38:25.156Z,32.24
2022-07-27T14:41:00.867Z,32.24
2022-07-27T14:43:31.102Z,32.28
2022-07-27T14:46:00.237Z,32.20
2022-07-27T14:49:02.804Z,31.91
2022-07-27T14:51:16.841Z,31.93
2022-07-27T14:53:45.031Z,32.01
2022-07-27T14:56:12.893Z,32.02
2022-07-27T14:58:42.584Z,32.01
2022-07-27T15:01:10.551Z,32.47
2022-07-27T15:03:38.512Z,32.67
2022-07-27T15:06:06.659Z,32.57
2022-07-27T15:08:34.598Z,33.05
2022-07-27T15:11:02.499Z,33.55
2022-07-27T15:13:30.621Z,33.93
2022-07-27T15:15:59.947Z,34.16
2022-07-27T15:18:27.916Z,33.92
2022-07-27T15:20:56.152Z,34.36
2022-07-27T15:23:24.224Z,34.87
2022-07-27T15:25:52.276Z,35.40
2022-07-27T15:28:20.756Z,35.81
2022-07-27T15:30:48.859Z,36.04
2022-07-27T15:33:19.047Z,35.93
2022-07-27T15:35:47.330Z,36.41
2022-07-27T15:38:15.340Z,36.61
2022-07-27T15:40:43.216Z,36.20
2022-07-27T15:43:13.199Z,35.99
2022-07-27T15:45:46.283Z,36.08
2022-07-27T15:48:15.737Z,36.37
2022-07-27T15:50:48.403Z,36.07
2022-07-27T15:53:18.470Z,36.29
2022-07-27T15:55:46.785Z,36.71
2022-07-27T15:58:18.021Z,35.97
2022-07-27T16:00:47.645Z,34.56
2022-07-27T16:03:16.092Z,33.53
2022-07-27T16:05:47.649Z,33.12
2022-07-27T16:08:16.306Z,33.58
2022-07-27T16:10:45.582Z,34.04
2022-07-27T16:13:14.589Z,34.78
2022-07-27T16:16:01.268Z,35.09
2022-07-27T16:18:29.579Z,35.47
2022-07-27T16:20:59.172Z,35.79
2022-07-27T16:23:27.356Z,35.76
2022-07-27T16:26:04.637Z,35.34
2022-07-27T16:28:35.654Z,35.27
2022-07-27T16:31:04.956Z,35.37
2022-07-27T16:33:33.367Z,35.43
2022-07-27T16:36:02.815Z,35.71
2022-07-27T16:38:30.661Z,35.73
2022-07-27T16:40:58.801Z,35.49
2022-07-27T16:43:37.288Z,35.55
2022-07-27T16:46:10.012Z,35.43
2022-07-27T16:48:42.926Z,35.24
2022-07-27T16:51:13.817Z,35.43
2022-07-27T16:53:43.989Z,36.01
2022-07-27T16:56:12.786Z,36.49
2022-07-27T16:58:41.255Z,36.97
2022-07-27T17:01:09.677Z,37.31
2022-07-27T17:03:50.117Z,37.60
2022-07-27T17:06:20.887Z,38.12
2022-07-27T17:08:49.173Z,37.89
2022-07-27T17:11:20.879Z,37.95
2022-07-27T17:13:50.711Z,37.68
2022-07-27T17:16:19.334Z,37.96
2022-07-27T17:18:47.539Z,38.36
2022-07-27T17:21:15.547Z,38.27
2022-07-27T17:23:45.507Z,38.22
2022-07-27T17:26:14.670Z,38.30
2022-07-27T17:28:43.351Z,38.43
2022-07-27T17:31:13.439Z,38.34
2022-07-27T17:33:42.144Z,38.14
2022-07-27T17:36:15.137Z,37.95
2022-07-27T17:38:46.210Z,37.75
2022-07-27T17:41:17.235Z,37.35
2022-07-27T17:43:50.036Z,37.44
2022-07-27T17:46:18.276Z,37.40
2022-07-27T17:48:46.412Z,37.39
2022-07-27T17:51:14.694Z,37.14
2022-07-27T17:53:43.575Z,37.03
2022-07-27T17:56:13.310Z,37.21
2022-07-27T17:58:42.843Z,37.17
2022-07-27T18:01:10.810Z,36.78
2022-07-27T18:03:40.192Z,36.74
2022-07-27T18:06:08.259Z,36.67
2022-07-27T18:08:37.972Z,35.82
2022-07-27T18:11:07.116Z,35.06
2022-07-27T18:13:39.844Z,34.15
2022-07-27T18:16:11.723Z,33.20
2022-07-27T18:18:41.288Z,32.43
2022-07-27T18:21:10.616Z,32.04
2022-07-27T18:23:39.118Z,31.83
2022-07-27T18:26:07.594Z,31.39
2022-07-27T18:28:39.408Z,30.93
2022-07-27T18:31:12.683Z,30.36
2022-07-27T18:33:45.818Z,29.97
2022-07-27T18:36:14.147Z,29.73
2022-07-27T18:38:44.995Z,29.60
2022-07-27T18:41:13.122Z,29.32
2022-07-27T18:43:41.045Z,29.02
2022-07-27T18:46:11.165Z,28.68
2022-07-27T18:48:39.537Z,28.39
2022-07-27T18:51:07.628Z,28.03
2022-07-27T18:53:35.920Z,27.73
2022-07-27T18:56:04.379Z,27.44
2022-07-27T18:58:32.705Z,27.28
2022-07-27T19:01:01.578Z,27.02
2022-07-27T19:03:31.412Z,26.81
2022-07-27T19:06:00.401Z,26.62
2022-07-27T19:08:29.015Z,26.45
2022-07-27T19:10:56.863Z,26.26
2022-07-27T19:13:25.147Z,26.11
2022-07-27T19:15:53.000Z,25.91
2022-07-27T19:18:21.017Z,25.69
2022-07-27T19:20:50.479Z,25.49
2022-07-27T19:23:18.612Z,25.27
2022-07-27T19:25:46.592Z,25.11
2022-07-27T19:28:17.066Z,24.92
2022-07-27T19:30:45.007Z,24.77
2022-07-27T19:33:13.084Z,24.62
2022-07-27T19:35:41.287Z,24.48
2022-07-27T19:38:10.624Z,24.33
2022-07-27T19:40:44.421Z,24.17
2022-07-27T19:43:14.107Z,24.03
2022-07-27T19:45:42.831Z,23.90
2022-07-27T19:48:11.365Z,23.77
2022-07-27T19:50:40.696Z,23.65
2022-07-27T19:53:09.881Z,23.59
2022-07-27T19:55:40.328Z,23.56
2022-07-27T19:58:08.414Z,23.50
2022-07-27T20:00:36.391Z,23.47
2022-07-27T20:03:05.026Z,23.37
2022-07-27T20:05:32.947Z,23.23
2022-07-27T20:08:00.816Z,23.08
2022-07-27T20:10:30.479Z,22.92
2022-07-27T20:12:58.340Z,22.76
2022-07-27T20:15:26.409Z,22.67
2022-07-27T20:17:55.717Z,22.60
2022-07-27T20:20:23.954Z,22.51
2022-07-27T20:22:51.941Z,22.38
2022-07-27T20:25:20.150Z,22.30
2022-07-27T20:27:50.135Z,22.25
2022-07-27T20:30:19.915Z,22.21
2022-07-27T20:32:49.585Z,22.12
2022-07-27T20:35:17.964Z,22.05
2022-07-27T20:37:47.305Z,21.97
2022-07-27T20:40:16.309Z,21.88
2022-07-27T20:45:14.883Z,21.75
2022-07-27T20:47:43.597Z,21.71
2022-07-27T20:50:13.396Z,21.71
2022-07-27T20:52:42.796Z,21.65
2022-07-27T20:55:12.314Z,21.59
2022-07-27T20:57:40.377Z,21.55
2022-07-27T21:00:09.739Z,21.50
2022-07-27T21:02:39.959Z,21.44
2022-07-27T21:05:09.314Z,21.33
2022-07-27T21:07:37.624Z,21.28
2022-07-27T21:10:06.040Z,21.21
2022-07-27T21:12:34.222Z,21.17
2022-07-27T21:15:02.797Z,21.08
2022-07-27T21:17:30.684Z,21.07
2022-07-27T21:19:59.895Z,21.03
2022-07-27T21:22:28.737Z,20.98
2022-07-27T21:24:56.606Z,20.91
2022-07-27T21:27:25.302Z,20.80
2022-07-27T21:29:54.696Z,20.73
2022-07-27T21:32:22.647Z,20.71
2022-07-27T21:34:50.553Z,20.66
2022-07-27T21:37:20.312Z,20.62
2022-07-27T21:39:48.223Z,20.55
2022-07-27T21:42:16.105Z,20.44
2022-07-27T21:44:44.409Z,20.34
2022-07-27T21:47:14.202Z,20.26
2022-07-27T21:49:43.059Z,20.21
2022-07-27T21:52:12.080Z,20.14
2022-07-27T21:54:41.383Z,20.05
2022-07-27T21:57:09.406Z,20.02
2022-07-27T21:59:37.559Z,19.97
2022-07-27T22:02:05.439Z,19.93
2022-07-27T22:04:34.274Z,19.88
2022-07-27T22:07:02.298Z,19.78
2022-07-27T22:09:30.475Z,19.73
2022-07-27T22:11:59.912Z,19.68
2022-07-27T22:14:27.961Z,19.63
2022-07-27T22:16:56.580Z,19.57
2022-07-27T22:19:24.795Z,19.52
2022-07-27T22:21:52.667Z,19.45
2022-07-27T22:24:20.772Z,19.37
2022-07-27T22:26:49.737Z,19.26
2022-07-27T22:29:18.975Z,19.15
2022-07-27T22:31:46.910Z,19.09
2022-07-27T22:34:15.477Z,19.01
2022-07-27T22:36:43.620Z,18.91
2022-07-27T22:39:12.845Z,18.80
2022-07-27T22:41:41.530Z,18.71
2022-07-27T22:44:09.423Z,18.67
2022-07-27T22:46:38.755Z,18.63
2022-07-27T22:49:06.967Z,18.57
2022-07-27T22:51:49.868Z,18.51
2022-07-27T22:54:21.355Z,18.43
2022-07-27T22:56:49.683Z,18.37
2022-07-27T22:59:17.588Z,18.31
2022-07-27T23:01:48.385Z,18.26
2022-07-27T23:04:17.979Z,18.18
2022-07-27T23:06:47.356Z,18.12
2022-07-27T23:09:18.551Z,18.07
2022-07-27T23:11:47.681Z,18.05
2022-07-27T23:14:16.206Z,18.05
2022-07-27T23:16:44.890Z,18.03
2022-07-27T23:19:14.422Z,18.01
2022-07-27T23:21:42.522Z,17.95
2022-07-27T23:24:11.354Z,17.90
2022-07-27T23:26:39.977Z,17.88
2022-07-27T23:29:08.230Z,17.88
2022-07-27T23:31:36.231Z,17.88
2022-07-27T23:34:04.487Z,17.86
2022-07-27T23:36:33.782Z,17.84
2022-07-27T23:39:01.666Z,17.78
2022-07-27T23:41:29.873Z,17.72
2022-07-27T23:43:57.742Z,17.59
2022-07-27T23:46:25.655Z,17.46
2022-07-27T23:48:53.925Z,17.36
2022-07-27T23:51:22.461Z,17.28
2022-07-27T23:53:51.664Z,17.24
2022-07-27T23:56:19.838Z,17.20
2022-07-27T23:58:47.747Z,17.18
